Terminal Aerodrome Forecast
Issued by NWS

Home | Current Version | Previous Version | Text Only | Print | Product List | Glossary On
Versions: 1 2 3 4 5 6 7 8 9 10 11 12 13 14 15 16 17 18 19 20 21 22
000
FTUS42 KFFC 311742
TAFPDK
TAF
KPDK 311742Z 3118/0118 06007KT P6SM BKN050
     FM312100 01005KT P6SM BKN050
     FM010000 34003KT P6SM FEW250
     FM011100 01004KT P6SM FEW250
     FM011500 04004KT P6SM FEW040=

USA.gov is the U.S. government's official web portal to all federal, state and local government web resources and services.